Time;durP1;ratioP1;P1;durP2;ratioP2;P2;SDS_P1;SDS_P2;PMS_P1;PMS_P2;Temp;Humidity;BMP_temperature;BMP_pressure;BME280_temperature;BME280_humidity;BME280_pressure;Samples;Min_cycle;Max_cycle;Signal;HPM_P1;HPM_P2
2023/07/25 00:00:35;;;;;;;111.13;51.90;;;23.30;66.00;;;;;;5052594;28;20067;-47
2023/07/25 00:03:00;;;;;;;113.22;53.58;;;23.30;66.00;;;;;;5052892;28;20036;-51
2023/07/25 00:05:26;;;;;;;112.65;49.42;;;23.20;66.30;;;;;;5052304;28;20025;-45
2023/07/25 00:07:52;;;;;;;105.70;45.42;;;23.30;66.80;;;;;;5052891;28;20481;-45
2023/07/25 00:10:18;;;;;;;97.32;45.67;;;23.30;65.80;;;;;;5052707;28;20029;-45
2023/07/25 00:12:44;;;;;;;95.57;41.05;;;23.30;65.70;;;;;;5052860;28;20021;-48
2023/07/25 00:15:10;;;;;;;91.53;40.47;;;23.30;65.70;;;;;;5052361;28;20025;-50
2023/07/25 00:17:36;;;;;;;89.53;37.95;;;23.30;65.70;;;;;;5052684;28;20044;-45
2023/07/25 00:20:02;;;;;;;79.30;36.63;;;23.30;65.60;;;;;;5052610;28;20075;-46
2023/07/25 00:22:27;;;;;;;84.80;35.67;;;23.30;65.70;;;;;;5052736;28;20024;-46
2023/07/25 00:24:53;;;;;;;77.53;33.97;;;23.30;65.40;;;;;;5052208;28;20512;-51
2023/07/25 00:27:19;;;;;;;77.03;35.85;;;23.30;65.20;;;;;;5052431;28;20104;-52
2023/07/25 00:29:46;;;;;;;69.22;31.63;;;23.30;65.30;;;;;;5052362;28;20572;-48
2023/07/25 00:32:12;;;;;;;70.80;32.15;;;23.30;65.20;;;;;;5034784;28;20507;-50
2023/07/25 00:34:37;;;;;;;68.03;31.23;;;23.30;65.10;;;;;;5034267;28;20029;-47
2023/07/25 00:37:03;;;;;;;64.88;30.13;;;23.30;65.50;;;;;;5052260;28;20017;-48
2023/07/25 00:39:29;;;;;;;62.00;28.92;;;23.30;65.10;;;;;;5052134;28;20050;-50
2023/07/25 00:41:55;;;;;;;61.38;28.50;;;23.30;65.00;;;;;;5052548;28;20025;-49
2023/07/25 00:44:20;;;;;;;71.53;29.92;;;23.30;65.10;;;;;;5034015;28;20040;-46
2023/07/25 00:46:46;;;;;;;57.85;25.80;;;23.30;65.10;;;;;;5034364;28;20429;-48
2023/07/25 00:49:12;;;;;;;60.78;27.33;;;23.30;65.20;;;;;;5034218;28;20037;-47
2023/07/25 00:51:38;;;;;;;60.22;28.27;;;23.30;65.10;;;;;;5052103;28;20576;-46
2023/07/25 00:54:04;;;;;;;55.65;25.23;;;23.30;65.10;;;;;;5051588;28;20056;-48
2023/07/25 00:56:32;;;;;;;49.77;22.87;;;23.30;65.10;;;;;;5034234;28;20025;-48
2023/07/25 00:58:58;;;;;;;54.88;25.05;;;23.30;65.10;;;;;;5034134;28;20423;-48
2023/07/25 01:01:25;;;;;;;47.55;22.35;;;23.20;65.10;;;;;;5051905;28;20404;-48
2023/07/25 01:03:53;;;;;;;48.08;22.20;;;23.20;65.10;;;;;;5051245;28;20466;-48
2023/07/25 01:06:19;;;;;;;50.10;22.38;;;23.20;65.10;;;;;;5033973;28;20037;-46
2023/07/25 01:08:53;;;;;;;54.95;24.30;;;23.20;65.00;;;;;;5033807;28;20104;-46
2023/07/25 01:11:20;;;;;;;48.67;22.10;;;23.20;65.10;;;;;;5051697;28;20496;-49
2023/07/25 01:13:46;;;;;;;48.25;20.88;;;23.20;65.00;;;;;;5051253;28;20483;-48
2023/07/25 01:16:17;;;;;;;47.85;20.38;;;23.20;65.00;;;;;;5051673;28;20049;-47
2023/07/25 01:18:44;;;;;;;45.28;19.13;;;23.20;65.00;;;;;;5033720;28;20066;-49
2023/07/25 01:21:11;;;;;;;46.33;19.63;;;23.20;65.00;;;;;;5033717;28;20028;-46
2023/07/25 01:23:38;;;;;;;37.83;17.08;;;23.20;64.90;;;;;;5033578;28;20443;-46
2023/07/25 01:26:04;;;;;;;39.88;17.35;;;23.20;64.90;;;;;;5051987;28;20108;-48
2023/07/25 01:28:30;;;;;;;39.20;16.92;;;23.20;64.90;;;;;;5033655;28;20067;-48
2023/07/25 01:30:57;;;;;;;44.60;18.40;;;23.20;64.90;;;;;;5033707;28;20578;-47
2023/07/25 01:33:23;;;;;;;37.15;17.17;;;23.20;64.80;;;;;;5033052;28;20029;-51
2023/07/25 01:35:49;;;;;;;39.35;15.68;;;23.20;64.80;;;;;;5051374;28;20131;-53
2023/07/25 01:38:15;;;;;;;36.45;15.40;;;23.20;64.80;;;;;;5051343;28;20025;-53
2023/07/25 01:40:41;;;;;;;37.85;16.15;;;23.20;64.60;;;;;;5033680;28;20502;-52
2023/07/25 01:43:08;;;;;;;34.30;14.68;;;23.20;64.60;;;;;;5033478;28;20025;-48
2023/07/25 01:45:35;;;;;;;32.80;14.20;;;23.20;64.50;;;;;;5033532;28;20157;-48
2023/07/25 01:48:01;;;;;;;34.55;13.65;;;23.20;64.50;;;;;;5051364;28;20049;-51
2023/07/25 01:50:27;;;;;;;38.60;14.63;;;23.20;64.50;;;;;;5033436;28;20079;-49
2023/07/25 01:52:54;;;;;;;30.60;13.80;;;23.20;64.40;;;;;;5051361;28;20029;-50
2023/07/25 01:55:20;;;;;;;37.97;13.93;;;23.20;64.40;;;;;;5033245;28;20384;-48
2023/07/25 01:57:46;;;;;;;29.92;12.77;;;23.20;64.40;;;;;;5051143;28;20029;-48
2023/07/25 02:00:12;;;;;;;32.53;13.30;;;23.20;64.40;;;;;;5033364;28;20033;-47
2023/07/25 02:02:40;;;;;;;25.15;11.48;;;23.20;64.40;;;;;;5051319;28;20033;-48
2023/07/25 02:05:06;;;;;;;31.88;12.68;;;23.20;64.30;;;;;;5033117;28;20476;-49
2023/07/25 02:07:32;;;;;;;30.92;12.07;;;23.20;64.30;;;;;;5033622;28;20027;-49
2023/07/25 02:09:58;;;;;;;31.02;13.07;;;23.20;64.30;;;;;;5051084;28;20089;-46
2023/07/25 02:12:26;;;;;;;23.48;11.18;;;23.20;64.20;;;;;;5033276;28;20491;-46
2023/07/25 02:14:52;;;;;;;29.45;11.90;;;23.20;64.20;;;;;;5032986;28;20060;-46
2023/07/25 02:17:19;;;;;;;27.02;11.23;;;23.20;64.20;;;;;;5036687;28;20499;-47
2023/07/25 02:19:45;;;;;;;26.58;11.38;;;23.20;64.20;;;;;;5037101;28;20033;-50
2023/07/25 02:22:12;;;;;;;25.33;10.43;;;23.20;64.20;;;;;;5054956;28;20025;-53
2023/07/25 02:24:38;;;;;;;25.13;10.73;;;23.20;64.10;;;;;;5036736;28;20491;-52
2023/07/25 02:27:04;;;;;;;22.17;10.65;;;23.10;64.10;;;;;;5037056;28;20064;-53
2023/07/25 02:29:30;;;;;;;22.70;9.35;;;23.20;64.10;;;;;;5054734;28;20590;-52
2023/07/25 02:31:56;;;;;;;23.63;11.10;;;23.10;64.20;;;;;;5037176;28;20052;-53
2023/07/25 02:34:22;;;;;;;24.25;9.10;;;23.10;64.10;;;;;;5054480;28;20603;-51
2023/07/25 02:36:47;;;;;;;22.10;9.90;;;23.10;64.10;;;;;;5054820;28;20486;-51
2023/07/25 02:39:13;;;;;;;21.20;9.65;;;23.10;64.20;;;;;;5054474;28;20471;-52
2023/07/25 02:41:39;;;;;;;23.67;9.93;;;23.10;64.10;;;;;;5054471;28;20108;-50
2023/07/25 02:44:05;;;;;;;24.98;10.15;;;23.10;64.20;;;;;;5054306;28;20406;-49
2023/07/25 02:46:31;;;;;;;21.80;10.18;;;23.10;64.20;;;;;;5054564;28;20029;-49
2023/07/25 02:48:57;;;;;;;23.85;9.52;;;23.10;64.20;;;;;;5054341;28;20614;-48
2023/07/25 02:51:22;;;;;;;19.20;8.20;;;23.10;64.10;;;;;;5036606;28;20040;-46
2023/07/25 02:53:48;;;;;;;16.50;7.65;;;23.10;64.10;;;;;;5053994;28;20103;-47
2023/07/25 02:56:14;;;;;;;17.52;6.78;;;23.10;64.10;;;;;;5036530;28;20052;-51
2023/07/25 02:58:40;;;;;;;15.40;6.95;;;23.10;64.00;;;;;;5033099;28;20052;-53
2023/07/25 03:01:06;;;;;;;19.80;7.43;;;23.10;64.00;;;;;;5053733;28;20029;-53
2023/07/25 03:03:31;;;;;;;16.73;7.45;;;23.10;63.90;;;;;;5052326;28;20601;-53
2023/07/25 03:05:57;;;;;;;17.60;7.72;;;23.10;63.90;;;;;;5054052;28;20503;-50
2023/07/25 03:08:23;;;;;;;13.07;6.43;;;23.10;63.90;;;;;;5053882;28;20021;-51
2023/07/25 03:10:49;;;;;;;16.38;6.72;;;23.10;63.80;;;;;;5053931;28;20086;-53
2023/07/25 03:13:15;;;;;;;18.27;7.00;;;23.10;63.80;;;;;;5035774;28;20113;-51
2023/07/25 03:15:41;;;;;;;14.55;6.80;;;23.20;63.80;;;;;;5036040;28;20022;-49
2023/07/25 03:18:07;;;;;;;14.70;6.72;;;23.10;63.80;;;;;;5053770;28;20036;-48
2023/07/25 03:20:33;;;;;;;17.83;6.63;;;23.10;63.80;;;;;;5036129;28;20032;-50
2023/07/25 03:22:59;;;;;;;15.52;6.88;;;23.10;63.80;;;;;;5053856;28;20476;-49
2023/07/25 03:25:24;;;;;;;17.33;6.32;;;23.10;63.70;;;;;;5053385;28;20036;-46
2023/07/25 03:27:51;;;;;;;17.40;7.35;;;23.10;63.70;;;;;;5053415;28;20029;-50
2023/07/25 03:30:18;;;;;;;13.85;6.00;;;23.20;63.70;;;;;;5035736;28;20033;-49
2023/07/25 03:32:44;;;;;;;16.42;6.13;;;23.10;63.60;;;;;;5035769;28;20537;-48
2023/07/25 03:35:09;;;;;;;14.98;6.65;;;23.10;63.50;;;;;;5035381;28;20029;-51
2023/07/25 03:37:35;;;;;;;18.85;6.50;;;23.10;63.50;;;;;;5053505;28;20056;-52
2023/07/25 03:40:01;;;;;;;16.80;6.38;;;23.10;63.40;;;;;;5035494;28;20029;-50
2023/07/25 03:42:27;;;;;;;20.58;6.30;;;23.20;63.40;;;;;;5035671;28;20402;-52
2023/07/25 03:44:53;;;;;;;15.02;6.18;;;23.20;63.40;;;;;;5035282;28;20594;-52
2023/07/25 03:47:19;;;;;;;13.52;5.85;;;23.20;63.40;;;;;;5053427;28;20047;-53
2023/07/25 03:49:45;;;;;;;12.75;5.95;;;23.10;63.30;;;;;;5081152;22;20033;-42
2023/07/25 03:52:11;;;;;;;16.33;6.63;;;23.20;63.40;;;;;;5062682;28;20024;-42
2023/07/25 03:54:37;;;;;;;13.60;5.90;;;23.20;63.40;;;;;;5072733;28;20032;-43
2023/07/25 03:57:04;;;;;;;15.85;5.90;;;23.10;63.30;;;;;;5073012;28;20059;-45
2023/07/25 03:59:30;;;;;;;14.07;6.07;;;23.10;63.20;;;;;;5072960;28;20024;-43
2023/07/25 04:01:56;;;;;;;16.70;6.45;;;23.20;63.30;;;;;;5055112;28;20037;-43
2023/07/25 04:04:21;;;;;;;14.60;6.38;;;23.20;63.30;;;;;;5072631;28;20047;-43
2023/07/25 04:06:47;;;;;;;15.68;6.60;;;23.20;63.20;;;;;;5072873;28;20033;-45
2023/07/25 04:09:13;;;;;;;12.52;5.60;;;23.10;63.20;;;;;;5055004;28;20032;-43
2023/07/25 04:11:39;;;;;;;15.05;5.93;;;23.20;63.20;;;;;;5072773;28;20035;-43
2023/07/25 04:14:04;;;;;;;12.80;5.90;;;23.10;63.20;;;;;;5072352;28;20119;-43
2023/07/25 04:16:30;;;;;;;14.85;6.22;;;23.10;63.10;;;;;;5072653;28;20028;-42
2023/07/25 04:18:56;;;;;;;15.45;5.95;;;23.10;63.10;;;;;;5054772;28;20036;-45
2023/07/25 04:21:22;;;;;;;15.55;5.68;;;23.10;63.10;;;;;;5054881;28;20082;-42
2023/07/25 04:23:48;;;;;;;13.02;5.38;;;23.10;63.20;;;;;;5072193;28;20399;-42
2023/07/25 04:26:14;;;;;;;15.10;6.07;;;23.10;63.10;;;;;;5072490;28;20035;-43
2023/07/25 04:28:40;;;;;;;16.65;6.50;;;23.20;63.20;;;;;;5072460;28;20070;-43
2023/07/25 04:31:06;;;;;;;14.00;5.90;;;23.10;63.10;;;;;;5054592;28;20036;-43
2023/07/25 04:33:31;;;;;;;16.67;6.30;;;23.10;63.10;;;;;;5054267;28;20020;-45
2023/07/25 04:35:57;;;;;;;14.10;6.07;;;23.10;63.10;;;;;;5054478;28;20025;-42
2023/07/25 04:38:23;;;;;;;12.57;5.55;;;23.10;63.10;;;;;;5071495;28;20545;-45
2023/07/25 04:40:49;;;;;;;15.55;6.13;;;23.10;63.10;;;;;;5072170;28;20131;-42
2023/07/25 04:43:15;;;;;;;11.98;5.40;;;23.10;63.10;;;;;;5071881;28;20048;-42
2023/07/25 04:45:40;;;;;;;14.38;5.78;;;23.10;63.10;;;;;;5072308;28;20373;-42
2023/07/25 04:48:06;;;;;;;12.30;5.53;;;23.10;63.10;;;;;;5054324;28;20078;-43
2023/07/25 04:50:32;;;;;;;14.68;5.90;;;23.10;63.00;;;;;;5071998;28;20553;-45
2023/07/25 04:52:58;;;;;;;12.55;5.78;;;23.10;63.10;;;;;;5072398;28;20494;-42
2023/07/25 04:55:24;;;;;;;12.43;5.75;;;23.10;63.00;;;;;;5072689;28;20029;-42
2023/07/25 04:57:50;;;;;;;13.25;5.60;;;23.10;63.10;;;;;;5071918;28;20024;-42
2023/07/25 05:00:16;;;;;;;12.52;5.38;;;23.10;63.00;;;;;;5071865;28;20092;-42
2023/07/25 05:02:42;;;;;;;13.85;5.60;;;23.10;63.60;;;;;;5071894;28;20043;-43
2023/07/25 05:05:08;;;;;;;13.05;5.30;;;23.10;63.00;;;;;;5071544;28;20323;-42
2023/07/25 05:07:33;;;;;;;12.48;5.45;;;23.10;63.00;;;;;;5071868;28;20024;-42
2023/07/25 05:09:59;;;;;;;10.90;5.25;;;23.10;63.00;;;;;;5071735;28;20063;-42
2023/07/25 05:12:25;;;;;;;13.02;5.60;;;23.10;63.00;;;;;;5071736;28;20025;-42
2023/07/25 05:14:51;;;;;;;12.73;5.70;;;23.10;63.00;;;;;;5071423;28;20025;-42
2023/07/25 05:17:17;;;;;;;12.15;5.30;;;23.10;63.50;;;;;;5071672;28;20021;-42
2023/07/25 05:19:42;;;;;;;11.93;5.95;;;23.10;63.00;;;;;;5071536;28;20028;-43
2023/07/25 05:22:08;;;;;;;12.48;5.32;;;23.10;62.90;;;;;;5071556;28;20024;-43
2023/07/25 05:24:34;;;;;;;13.38;5.30;;;23.10;62.90;;;;;;5071204;28;20040;-43
2023/07/25 05:27:00;;;;;;;12.95;5.25;;;23.10;62.90;;;;;;5071588;28;20039;-42
2023/07/25 05:29:26;;;;;;;13.68;5.15;;;23.10;62.90;;;;;;5071596;28;20035;-45
2023/07/25 05:31:52;;;;;;;11.90;5.60;;;23.10;62.80;;;;;;5071549;28;20025;-42
2023/07/25 05:34:18;;;;;;;12.23;5.50;;;23.10;62.80;;;;;;5071111;28;20036;-42
2023/07/25 05:36:44;;;;;;;10.90;4.95;;;23.10;62.80;;;;;;5071443;28;20099;-42
2023/07/25 05:39:10;;;;;;;12.85;5.18;;;23.10;62.80;;;;;;5071309;28;20472;-42
2023/07/25 05:41:37;;;;;;;10.50;5.05;;;23.10;62.70;;;;;;5071365;28;20040;-42
2023/07/25 05:44:04;;;;;;;11.68;5.47;;;23.10;62.60;;;;;;5071062;28;20020;-45
2023/07/25 05:46:29;;;;;;;10.85;4.95;;;23.10;62.60;;;;;;5071331;28;20028;-42
2023/07/25 05:48:55;;;;;;;12.63;5.68;;;23.10;62.60;;;;;;5071232;28;20021;-43
2023/07/25 05:51:21;;;;;;;11.13;5.40;;;23.10;62.60;;;;;;5075055;28;20032;-47
2023/07/25 05:53:47;;;;;;;9.63;4.97;;;23.10;62.60;;;;;;5074975;28;20483;-42
2023/07/25 05:56:13;;;;;;;14.50;6.13;;;23.10;62.60;;;;;;5075346;28;20125;-44
2023/07/25 05:58:40;;;;;;;16.02;5.93;;;23.10;62.70;;;;;;5075285;28;20051;-45
2023/07/25 06:01:06;;;;;;;16.08;5.40;;;23.10;62.90;;;;;;5075305;28;20029;-42
2023/07/25 06:03:32;;;;;;;14.40;4.30;;;23.10;62.70;;;;;;5074901;28;20066;-46
2023/07/25 06:06:03;;;;;;;10.90;4.32;;;23.10;62.50;;;;;;5075168;28;20407;-46
2023/07/25 06:08:29;;;;;;;8.40;3.47;;;23.00;62.30;;;;;;5074520;28;20025;-44
2023/07/25 06:10:55;;;;;;;11.38;3.63;;;22.90;61.90;;;;;;5075164;28;20123;-42
2023/07/25 06:13:21;;;;;;;13.15;3.30;;;22.90;61.90;;;;;;5074679;28;20138;-43
2023/07/25 06:15:47;;;;;;;10.98;3.08;;;22.80;61.40;;;;;;5075038;28;20479;-42
2023/07/25 06:18:12;;;;;;;9.90;2.80;;;22.80;61.50;;;;;;5074966;28;20427;-42
2023/07/25 06:20:38;;;;;;;10.75;3.20;;;22.80;61.40;;;;;;5074786;28;20034;-44
2023/07/25 06:23:04;;;;;;;8.93;2.97;;;22.70;61.60;;;;;;5074847;28;20029;-44
2023/07/25 06:25:30;;;;;;;11.90;2.97;;;22.70;61.50;;;;;;5074567;28;20016;-45
2023/07/25 06:27:56;;;;;;;8.57;2.60;;;22.70;61.30;;;;;;5074819;28;20104;-46
2023/07/25 06:30:21;;;;;;;10.00;3.00;;;22.60;61.10;;;;;;5074741;28;20121;-45
2023/07/25 06:32:47;;;;;;;12.25;3.17;;;22.70;60.80;;;;;;5074669;28;20021;-43
2023/07/25 06:35:13;;;;;;;9.68;2.90;;;22.60;60.30;;;;;;5074199;28;20037;-42
2023/07/25 06:37:39;;;;;;;9.95;3.20;;;22.70;60.20;;;;;;5074499;28;20082;-42
2023/07/25 06:40:05;;;;;;;13.05;3.15;;;22.70;60.20;;;;;;5074495;28;20554;-43
2023/07/25 06:42:31;;;;;;;7.57;2.55;;;22.70;60.30;;;;;;5074487;28;20024;-42
2023/07/25 06:45:00;;;;;;;9.85;2.60;;;22.70;60.30;;;;;;5056412;28;20392;-43
2023/07/25 06:47:25;;;;;;;6.65;2.42;;;22.70;60.00;;;;;;5056573;28;20032;-42
2023/07/25 06:49:51;;;;;;;7.90;2.33;;;22.70;60.00;;;;;;5074092;28;20055;-42
2023/07/25 06:52:17;;;;;;;12.27;2.50;;;22.70;60.00;;;;;;5074535;28;20032;-42
2023/07/25 06:54:44;;;;;;;9.57;2.65;;;22.70;60.00;;;;;;5073992;28;20370;-42
2023/07/25 06:57:10;;;;;;;9.93;2.40;;;22.60;59.80;;;;;;5074239;28;20484;-43
2023/07/25 06:59:36;;;;;;;12.52;3.00;;;22.70;60.50;;;;;;5055616;28;20500;-42
2023/07/25 07:02:02;;;;;;;13.65;2.60;;;22.70;60.00;;;;;;5045906;28;20025;-43
2023/07/25 07:04:28;;;;;;;8.63;2.63;;;22.70;60.10;;;;;;5050746;28;20029;-43
2023/07/25 07:06:53;;;;;;;9.32;2.50;;;22.70;60.60;;;;;;5051520;28;20134;-44
2023/07/25 07:09:19;;;;;;;12.27;2.65;;;22.70;60.00;;;;;;5050902;28;20033;-43
2023/07/25 07:11:45;;;;;;;8.90;2.72;;;22.70;59.80;;;;;;5053212;28;20527;-43
2023/07/25 07:14:11;;;;;;;10.63;2.78;;;22.70;59.70;;;;;;5050743;28;20024;-43
2023/07/25 07:16:37;;;;;;;10.10;2.97;;;22.70;59.90;;;;;;5051489;28;20033;-43
2023/07/25 07:19:03;;;;;;;14.75;3.15;;;22.70;59.80;;;;;;5051108;28;20028;-46
2023/07/25 07:21:30;;;;;;;17.13;3.65;;;22.80;59.70;;;;;;5051410;28;20078;-45
2023/07/25 07:23:55;;;;;;;10.73;2.83;;;22.80;59.70;;;;;;5051014;28;20052;-45
2023/07/25 07:26:21;;;;;;;10.77;2.78;;;22.80;60.00;;;;;;5051316;28;20056;-42
2023/07/25 07:28:47;;;;;;;19.95;3.00;;;22.80;60.20;;;;;;5051147;28;20438;-43
2023/07/25 07:31:15;;;;;;;15.50;3.50;;;22.90;60.70;;;;;;5049761;28;20029;-42
2023/07/25 07:33:40;;;;;;;10.80;2.47;;;22.90;61.50;;;;;;5050247;28;20036;-46
2023/07/25 07:36:07;;;;;;;16.23;3.63;;;23.00;61.90;;;;;;5051069;28;20037;-44
2023/07/25 07:38:33;;;;;;;8.40;2.97;;;23.10;61.90;;;;;;5051115;28;20082;-43
2023/07/25 07:40:59;;;;;;;9.32;2.88;;;23.00;60.90;;;;;;5051004;28;20392;-44
2023/07/25 07:43:24;;;;;;;7.78;2.60;;;23.10;60.90;;;;;;5050678;28;20021;-43
2023/07/25 07:45:50;;;;;;;7.65;2.75;;;23.10;61.80;;;;;;5050155;28;20120;-44
2023/07/25 07:48:16;;;;;;;12.32;2.80;;;23.00;60.80;;;;;;5050654;28;20035;-42
2023/07/25 07:50:43;;;;;;;8.20;2.85;;;23.10;60.40;;;;;;5050613;28;20033;-42
2023/07/25 07:53:10;;;;;;;8.48;2.70;;;23.10;60.10;;;;;;5050765;28;20025;-43
2023/07/25 07:55:35;;;;;;;10.57;2.60;;;23.10;59.70;;;;;;5050721;28;20029;-43
2023/07/25 07:58:02;;;;;;;5.90;2.53;;;23.10;59.40;;;;;;5050848;28;20051;-42
2023/07/25 08:00:28;;;;;;;8.73;2.67;;;23.10;59.30;;;;;;5050514;28;20045;-42
2023/07/25 08:02:54;;;;;;;7.40;2.40;;;23.10;59.10;;;;;;5050522;28;20032;-42
2023/07/25 08:05:20;;;;;;;5.18;2.35;;;23.10;58.80;;;;;;5032510;28;20035;-43
2023/07/25 08:07:47;;;;;;;6.57;2.53;;;23.10;58.60;;;;;;5050642;28;20463;-42
2023/07/25 08:10:13;;;;;;;5.07;2.38;;;23.10;58.60;;;;;;5050364;28;20108;-43
2023/07/25 08:12:39;;;;;;;9.05;2.38;;;23.10;58.60;;;;;;5050076;28;20116;-43
2023/07/25 08:15:06;;;;;;;7.43;2.17;;;23.10;59.60;;;;;;5049254;28;20082;-45
2023/07/25 08:17:31;;;;;;;9.18;2.30;;;23.10;59.20;;;;;;5050716;28;20029;-42
2023/07/25 08:19:58;;;;;;;14.18;3.28;;;23.10;58.90;;;;;;5050221;28;20063;-43
2023/07/25 08:22:24;;;;;;;8.95;2.42;;;23.10;58.00;;;;;;5050172;28;20392;-42
2023/07/25 08:24:53;;;;;;;7.10;2.22;;;23.10;58.50;;;;;;5047970;28;20040;-43
2023/07/25 08:27:18;;;;;;;7.85;2.83;;;23.10;58.40;;;;;;5050042;28;20036;-42
2023/07/25 08:29:48;;;;;;;5.13;2.50;;;23.10;58.10;;;;;;5048966;28;20025;-43
2023/07/25 08:32:14;;;;;;;;;;;23.10;58.30;;;;;;5051955;28;20025;-42
2023/07/25 08:34:40;;;;;;;9.73;2.53;;;23.10;58.20;;;;;;5048646;28;20016;-42
2023/07/25 08:37:06;;;;;;;10.48;3.03;;;23.10;58.20;;;;;;5048871;28;20028;-42
2023/07/25 08:39:33;;;;;;;15.68;2.35;;;23.10;58.30;;;;;;5049058;28;20025;-43
2023/07/25 08:42:02;;;;;;;9.13;2.50;;;23.10;58.50;;;;;;5049787;28;20480;-45
2023/07/25 08:44:34;;;;;;;9.55;2.38;;;23.10;58.70;;;;;;5048492;28;20024;-43
2023/07/25 08:47:06;;;;;;;6.93;2.08;;;23.10;58.30;;;;;;5048870;28;20515;-44
2023/07/25 08:49:35;;;;;;;22.35;3.10;;;23.10;58.70;;;;;;5047521;28;20033;-42
2023/07/25 08:52:03;;;;;;;4.28;1.80;;;23.10;58.30;;;;;;5049065;28;20025;-43
2023/07/25 08:54:34;;;;;;;7.10;2.75;;;23.10;58.20;;;;;;5049290;28;20055;-43
2023/07/25 08:57:01;;;;;;;8.68;2.28;;;23.10;58.00;;;;;;5049921;28;20028;-42
2023/07/25 08:59:27;;;;;;;8.00;2.25;;;23.10;58.30;;;;;;5048810;28;20037;-42
2023/07/25 09:01:54;;;;;;;7.93;2.33;;;23.10;58.00;;;;;;5033699;28;20017;-42
2023/07/25 09:04:22;;;;;;;3.45;1.80;;;23.00;58.00;;;;;;5047411;28;20025;-43
2023/07/25 09:06:48;;;;;;;7.85;2.47;;;23.00;58.20;;;;;;5047698;28;20037;-44
2023/07/25 09:09:14;;;;;;;6.47;1.80;;;23.00;57.70;;;;;;5049170;28;20159;-45
2023/07/25 09:11:40;;;;;;;9.27;2.40;;;23.00;57.50;;;;;;5048361;28;20123;-42
2023/07/25 09:14:06;;;;;;;11.77;2.10;;;23.00;57.30;;;;;;5048112;28;20032;-43
2023/07/25 09:16:33;;;;;;;22.92;2.90;;;23.00;57.30;;;;;;5029354;28;20025;-42
2023/07/25 09:18:59;;;;;;;8.50;2.42;;;23.10;56.80;;;;;;5043846;28;20049;-43
2023/07/25 09:21:25;;;;;;;12.70;2.47;;;23.00;56.80;;;;;;5048966;28;20494;-42
2023/07/25 09:23:55;;;;;;;7.82;1.90;;;22.60;55.80;;;;;;5048233;28;20175;-42
2023/07/25 09:26:21;;;;;;;;;;;22.70;56.30;;;;;;5047250;28;20025;-43
2023/07/25 09:29:07;;;;;;;7.57;1.95;;;22.60;55.70;;;;;;5048197;28;20272;-42
2023/07/25 09:31:43;;;;;;;10.93;2.13;;;22.40;55.30;;;;;;5043151;28;20056;-42
2023/07/25 09:34:16;;;;;;;8.65;2.17;;;22.40;55.20;;;;;;5041456;28;20048;-42
2023/07/25 09:36:48;;;;;;;5.75;1.92;;;22.50;55.50;;;;;;5047951;28;20091;-43
2023/07/25 09:39:16;;;;;;;8.63;2.17;;;22.60;55.20;;;;;;5048954;28;20021;-44
2023/07/25 09:41:43;;;;;;;11.85;2.50;;;22.60;55.30;;;;;;5048624;28;20832;-47
2023/07/25 09:44:09;;;;;;;8.27;2.20;;;22.80;55.50;;;;;;5026300;28;20029;-49
2023/07/25 09:46:36;;;;;;;7.10;2.03;;;22.80;55.80;;;;;;5044133;28;20563;-49
2023/07/25 09:49:02;;;;;;;9.07;1.92;;;22.80;55.80;;;;;;5044048;28;20115;-45
2023/07/25 09:51:28;;;;;;;6.20;2.10;;;22.90;55.80;;;;;;5048747;28;20033;-49
2023/07/25 09:53:54;;;;;;;12.48;2.10;;;22.90;55.50;;;;;;5048104;28;20025;-49
2023/07/25 09:56:24;;;;;;;6.85;1.80;;;22.90;55.40;;;;;;5064433;22;20585;-51
2023/07/25 09:58:51;;;;;;;5.75;1.95;;;23.00;55.80;;;;;;5043459;28;20104;-49
2023/07/25 10:01:18;;;;;;;7.10;1.80;;;23.00;55.90;;;;;;5048189;28;20036;-54
2023/07/25 10:03:44;;;;;;;9.15;2.25;;;23.00;55.80;;;;;;5047094;28;20158;-49
2023/07/25 10:06:12;;;;;;;6.85;1.90;;;23.00;55.90;;;;;;5048478;28;20056;-49
2023/07/25 10:08:39;;;;;;;33.03;3.13;;;23.00;55.90;;;;;;5030544;28;20060;-50
2023/07/25 10:11:05;;;;;;;14.57;2.13;;;23.00;55.70;;;;;;5048204;28;20029;-53
2023/07/25 10:13:34;;;;;;;11.32;2.30;;;23.00;56.00;;;;;;5047141;28;20024;-54
2023/07/25 10:16:01;;;;;;;13.32;2.40;;;23.00;56.20;;;;;;5035041;28;20033;-50
2023/07/25 10:18:32;;;;;;;7.25;1.90;;;23.10;56.30;;;;;;5032747;28;20029;-53
2023/07/25 10:20:58;;;;;;;12.52;2.08;;;23.00;56.40;;;;;;5048454;28;20108;-52
2023/07/25 10:23:37;;;;;;;13.93;2.25;;;23.10;56.60;;;;;;5048642;28;20092;-53
2023/07/25 10:26:29;;;;;;;11.10;2.30;;;23.00;56.70;;;;;;5048426;28;20063;-47
2023/07/25 10:28:59;;;;;;;13.15;2.40;;;23.10;56.80;;;;;;5049094;28;20021;-50
2023/07/25 10:31:33;;;;;;;7.10;2.17;;;23.10;56.70;;;;;;5048304;28;20496;-48
2023/07/25 10:34:00;;;;;;;12.30;1.98;;;23.10;56.90;;;;;;5048057;28;20496;-50
2023/07/25 10:36:26;;;;;;;7.40;1.90;;;23.10;56.80;;;;;;5048558;28;20075;-52
2023/07/25 10:39:03;;;;;;;6.22;2.10;;;23.10;56.70;;;;;;5052472;28;20500;-51
2023/07/25 10:41:29;;;;;;;6.60;1.92;;;23.20;56.80;;;;;;5052199;28;20024;-51
2023/07/25 10:43:56;;;;;;;5.90;1.88;;;23.10;56.80;;;;;;5051850;28;20029;-49
2023/07/25 10:46:26;;;;;;;10.00;2.28;;;23.20;56.90;;;;;;5051840;28;20458;-48
2023/07/25 10:48:53;;;;;;;10.65;2.25;;;23.20;56.90;;;;;;5052163;28;20504;-50
2023/07/25 10:51:21;;;;;;;7.45;1.98;;;23.20;57.10;;;;;;5051808;28;20025;-53
2023/07/25 10:54:10;;;;;;;10.90;2.08;;;23.20;57.50;;;;;;5051777;28;20413;-52
2023/07/25 10:56:37;;;;;;;7.03;2.38;;;23.20;57.70;;;;;;5037558;28;20029;-49
2023/07/25 10:59:10;;;;;;;10.57;2.55;;;23.20;57.80;;;;;;5051972;28;20052;-54
2023/07/25 11:01:47;;;;;;;4.78;2.00;;;23.20;58.10;;;;;;5051798;28;20025;-47
2023/07/25 11:04:20;;;;;;;7.80;2.20;;;23.20;58.10;;;;;;5051435;28;20512;-49
2023/07/25 11:06:48;;;;;;;6.53;2.25;;;23.20;58.20;;;;;;5051968;28;20029;-51
2023/07/25 11:09:14;;;;;;;8.93;2.50;;;23.20;58.20;;;;;;5051763;28;20029;-48
2023/07/25 11:11:45;;;;;;;10.13;3.22;;;23.20;58.10;;;;;;5051436;28;20037;-53
2023/07/25 11:14:14;;;;;;;9.32;2.83;;;23.20;58.30;;;;;;5050946;28;20039;-55
2023/07/25 11:16:41;;;;;;;6.30;2.65;;;23.20;58.40;;;;;;5051648;28;20021;-53
2023/07/25 11:19:08;;;;;;;7.63;2.55;;;23.20;58.40;;;;;;5051549;28;20037;-53
2023/07/25 11:21:39;;;;;;;6.40;2.38;;;23.20;58.40;;;;;;5051339;28;20492;-47
2023/07/25 11:24:06;;;;;;;10.88;2.95;;;23.20;58.60;;;;;;5051007;28;20382;-53
2023/07/25 11:26:32;;;;;;;8.43;2.90;;;23.20;58.60;;;;;;5049886;28;20020;-50
2023/07/25 11:29:11;;;;;;;7.35;2.30;;;23.20;58.60;;;;;;5051312;28;20104;-48
2023/07/25 11:31:44;;;;;;;11.75;2.70;;;23.20;58.80;;;;;;5038432;28;20032;-47
2023/07/25 11:34:16;;;;;;;7.28;2.80;;;23.20;58.80;;;;;;5048841;28;20459;-48
2023/07/25 11:36:43;;;;;;;13.48;2.80;;;23.20;58.70;;;;;;5050002;28;20108;-53
2023/07/25 11:39:10;;;;;;;8.90;2.70;;;23.20;58.70;;;;;;5050487;28;20025;-49
2023/07/25 11:41:37;;;;;;;11.35;2.85;;;23.20;58.70;;;;;;5050980;28;20100;-51
2023/07/25 11:44:11;;;;;;;12.68;2.92;;;23.30;59.10;;;;;;5050770;28;20522;-53
2023/07/25 11:46:43;;;;;;;7.82;2.80;;;23.20;59.00;;;;;;5050672;28;20025;-53
2023/07/25 11:49:11;;;;;;;9.85;2.58;;;23.20;59.10;;;;;;5050761;28;20021;-48
2023/07/25 11:51:37;;;;;;;10.80;2.90;;;23.20;59.20;;;;;;5050875;28;20487;-53
2023/07/25 11:54:04;;;;;;;10.23;2.50;;;23.20;59.20;;;;;;5050277;28;20036;-50
2023/07/25 11:56:33;;;;;;;12.48;3.03;;;23.20;59.30;;;;;;5031338;28;20029;-49
2023/07/25 11:58:59;;;;;;;7.28;2.67;;;23.20;59.30;;;;;;5050419;28;20025;-54
2023/07/25 12:01:32;;;;;;;10.68;2.78;;;23.20;59.30;;;;;;5050375;28;20100;-53
2023/07/25 12:04:02;;;;;;;9.05;2.30;;;23.20;59.20;;;;;;5050453;28;20041;-51
2023/07/25 12:06:32;;;;;;;8.75;2.83;;;23.20;59.40;;;;;;5035772;28;20444;-50
2023/07/25 12:09:00;;;;;;;7.57;2.50;;;23.20;59.40;;;;;;5046350;28;20039;-52
2023/07/25 12:11:26;;;;;;;13.98;3.10;;;23.20;59.40;;;;;;5041929;28;20025;-52
2023/07/25 12:13:54;;;;;;;5.75;2.25;;;23.20;59.50;;;;;;5049415;28;20029;-54
2023/07/25 12:16:31;;;;;;;8.15;2.28;;;23.20;59.30;;;;;;5049506;28;20028;-52
2023/07/25 12:18:59;;;;;;;6.55;2.45;;;23.20;59.40;;;;;;5049927;28;20116;-54
2023/07/25 12:21:31;;;;;;;5.35;2.30;;;23.20;58.90;;;;;;5049208;28;20407;-53
2023/07/25 12:24:01;;;;;;;5.78;2.58;;;23.10;58.60;;;;;;5048327;28;20075;-51
2023/07/25 12:26:28;;;;;;;4.95;2.10;;;23.10;58.50;;;;;;5041310;28;20369;-54
2023/07/25 12:28:55;;;;;;;7.13;2.10;;;23.20;58.00;;;;;;5050135;28;20052;-54
2023/07/25 12:31:22;;;;;;;7.80;2.50;;;23.20;58.40;;;;;;5049883;28;20663;-51
2023/07/25 12:33:50;;;;;;;6.32;2.20;;;23.20;57.30;;;;;;5049469;28;20515;-53
2023/07/25 12:36:17;;;;;;;12.25;2.67;;;23.20;57.40;;;;;;5049440;28;20083;-53